createdAt,value
2024-03-25T00:00:56.368Z,141.04
2024-03-25T00:01:56.381Z,140.06
2024-03-25T00:02:56.448Z,141.34
2024-03-25T00:03:56.421Z,140.66
2024-03-25T00:04:56.456Z,140.26
2024-03-25T00:05:56.410Z,140.89
2024-03-25T00:06:56.387Z,141.20
2024-03-25T00:07:56.372Z,141.31
2024-03-25T00:08:56.390Z,141.39
2024-03-25T00:09:56.500Z,141.16
2024-03-25T00:10:56.375Z,141.93
2024-03-25T00:11:56.393Z,141.80
2024-03-25T00:12:56.397Z,142.13
2024-03-25T00:13:56.480Z,139.72
2024-03-25T00:14:56.369Z,141.64
2024-03-25T00:15:56.397Z,141.91
2024-03-25T00:16:56.387Z,141.44
2024-03-25T00:17:57.003Z,141.19
2024-03-25T00:18:56.399Z,141.91
2024-03-25T00:19:56.401Z,140.95
2024-03-25T00:20:56.388Z,142.28
2024-03-25T00:21:56.542Z,140.98
2024-03-25T00:22:56.415Z,142.48
2024-03-25T00:23:56.432Z,141.89
2024-03-25T00:24:56.439Z,141.10
2024-03-25T00:25:56.412Z,142.70
2024-03-25T00:26:56.395Z,142.02
2024-03-25T00:27:56.413Z,141.54
2024-03-25T00:28:56.454Z,142.16
2024-03-25T00:29:56.421Z,142.51
2024-03-25T00:30:56.389Z,142.18
2024-03-25T00:31:56.389Z,142.47
2024-03-25T00:32:56.384Z,142.16
2024-03-25T00:33:56.455Z,143.04
2024-03-25T00:34:56.429Z,141.48
2024-03-25T00:35:56.410Z,143.12
2024-03-25T00:36:56.554Z,142.89
2024-03-25T00:37:56.402Z,141.70
2024-03-25T00:38:56.453Z,142.25
2024-03-25T00:39:56.400Z,142.74
2024-03-25T00:40:56.473Z,142.93
2024-03-25T00:41:56.400Z,142.31
2024-03-25T00:42:56.409Z,142.61
2024-03-25T00:43:56.433Z,143.36
2024-03-25T00:44:56.432Z,143.67
2024-03-25T00:45:56.409Z,143.71
2024-03-25T00:46:56.425Z,143.48
2024-03-25T00:47:56.405Z,142.03
2024-03-25T00:48:56.447Z,143.62
2024-03-25T00:49:56.509Z,143.60
2024-03-25T00:50:56.431Z,143.04
2024-03-25T00:51:56.454Z,143.71
2024-03-25T00:52:56.434Z,142.85
2024-03-25T00:53:56.432Z,143.16
2024-03-25T00:54:56.443Z,142.95
2024-03-25T00:55:56.504Z,143.80
2024-03-25T00:56:56.500Z,142.89
2024-03-25T00:57:56.512Z,142.27
2024-03-25T00:58:56.547Z,144.02
2024-03-25T00:59:56.613Z,143.52
2024-03-25T01:00:56.686Z,144.04
2024-03-25T01:01:56.723Z,144.41
2024-03-25T01:02:56.801Z,143.52
2024-03-25T01:03:56.822Z,143.28
2024-03-25T01:04:56.866Z,142.56
2024-03-25T01:05:56.871Z,143.28
2024-03-25T01:06:56.952Z,143.56
2024-03-25T01:07:57.031Z,144.08
2024-03-25T01:08:57.046Z,143.04
2024-03-25T01:09:57.118Z,142.73
2024-03-25T01:10:57.168Z,143.84
2024-03-25T01:11:57.160Z,144.00
2024-03-25T01:12:57.234Z,145.02
2024-03-25T01:13:57.261Z,143.85
2024-03-25T01:14:57.294Z,143.59
2024-03-25T01:15:57.341Z,143.86
2024-03-25T01:16:57.380Z,143.59
2024-03-25T01:17:57.445Z,144.54
2024-03-25T01:18:57.440Z,144.43
2024-03-25T01:19:57.564Z,143.94
2024-03-25T01:20:57.554Z,144.39
2024-03-25T01:21:57.565Z,143.92
2024-03-25T01:22:57.625Z,143.32
2024-03-25T01:23:57.683Z,144.56
2024-03-25T01:24:57.724Z,143.76
2024-03-25T01:25:57.755Z,143.30
2024-03-25T01:26:57.847Z,144.04
2024-03-25T01:27:57.838Z,144.00
2024-03-25T01:28:57.905Z,144.43
2024-03-25T01:29:57.949Z,143.23
2024-03-25T01:30:57.970Z,143.63
2024-03-25T01:31:58.004Z,145.08
2024-03-25T01:32:58.048Z,144.72
2024-03-25T01:33:58.087Z,143.36
2024-03-25T01:34:58.136Z,144.56
2024-03-25T01:35:58.151Z,144.92
2024-03-25T01:36:58.236Z,144.95
2024-03-25T01:37:58.227Z,145.01
2024-03-25T01:38:58.540Z,144.03
2024-03-25T01:39:58.299Z,145.03
2024-03-25T01:40:58.380Z,143.73
2024-03-25T01:41:58.452Z,144.78
2024-03-25T01:42:58.460Z,145.36
2024-03-25T01:43:58.537Z,144.30
2024-03-25T01:44:58.591Z,145.32
2024-03-25T01:45:58.631Z,144.66
2024-03-25T01:46:58.703Z,144.50
2024-03-25T01:47:58.693Z,144.51
2024-03-25T01:48:58.802Z,143.98
2024-03-25T01:49:58.818Z,144.66
2024-03-25T01:50:58.836Z,144.96
2024-03-25T01:51:58.901Z,145.06
2024-03-25T01:52:58.967Z,145.18
2024-03-25T01:53:58.949Z,144.18
2024-03-25T01:54:59.022Z,144.93
2024-03-25T01:55:59.086Z,145.35
2024-03-25T01:56:59.100Z,144.85
2024-03-25T01:57:59.143Z,145.31
2024-03-25T01:58:59.266Z,144.51
2024-03-25T01:59:59.293Z,143.36
2024-03-25T02:00:59.313Z,144.72
2024-03-25T02:01:59.347Z,145.27
2024-03-25T02:02:59.429Z,145.09
2024-03-25T02:03:59.422Z,144.57
2024-03-25T02:04:59.507Z,145.34
2024-03-25T02:05:59.539Z,145.32
2024-03-25T02:06:59.582Z,144.96
2024-03-25T02:07:59.664Z,145.18
2024-03-25T02:08:59.677Z,145.25
2024-03-25T02:10:00.185Z,145.84
2024-03-25T02:10:59.744Z,145.88
2024-03-25T02:11:59.782Z,145.93
2024-03-25T02:12:59.822Z,145.75
2024-03-25T02:13:59.896Z,145.79
2024-03-25T02:14:59.940Z,145.39
2024-03-25T02:15:59.983Z,146.15
2024-03-25T02:17:00.032Z,146.49
2024-03-25T02:18:00.190Z,146.21
2024-03-25T02:19:00.167Z,146.04
2024-03-25T02:20:00.275Z,145.79
2024-03-25T02:21:00.193Z,145.93
2024-03-25T02:22:01.218Z,146.63
2024-03-25T02:23:00.335Z,145.05
2024-03-25T02:24:00.394Z,146.32
2024-03-25T02:25:00.401Z,146.78
2024-03-25T02:26:00.436Z,146.18
2024-03-25T02:27:00.580Z,146.40
2024-03-25T02:28:00.593Z,145.54
2024-03-25T02:29:00.692Z,145.83
2024-03-25T02:30:00.700Z,146.80
2024-03-25T02:31:00.774Z,147.39
2024-03-25T02:32:00.790Z,145.59
2024-03-25T02:33:00.779Z,147.00
2024-03-25T02:34:00.855Z,146.60
2024-03-25T02:35:01.049Z,145.03
2024-03-25T02:36:00.984Z,145.80
2024-03-25T02:37:00.982Z,145.93
2024-03-25T02:38:01.152Z,145.76
2024-03-25T02:39:01.099Z,145.84
2024-03-25T02:40:01.181Z,146.29
2024-03-25T02:41:01.186Z,146.43
2024-03-25T02:42:01.220Z,146.64
2024-03-25T02:43:01.344Z,146.29
2024-03-25T02:44:01.354Z,145.93
2024-03-25T02:45:01.436Z,146.99
2024-03-25T02:46:01.425Z,145.69
2024-03-25T02:47:01.517Z,146.39
2024-03-25T02:48:01.546Z,146.01
2024-03-25T02:49:01.628Z,146.27
2024-03-25T02:50:01.658Z,145.91
2024-03-25T02:51:01.688Z,147.31
2024-03-25T02:52:01.733Z,146.83
2024-03-25T02:53:01.747Z,146.23
2024-03-25T02:54:01.889Z,146.39
2024-03-25T02:55:01.865Z,147.06
2024-03-25T02:56:01.907Z,146.80
2024-03-25T02:57:01.908Z,146.55
2024-03-25T02:58:01.972Z,146.35
2024-03-25T02:59:02.029Z,146.71
2024-03-25T03:00:02.094Z,146.67
2024-03-25T03:01:02.160Z,145.52
2024-03-25T03:02:02.186Z,145.90
2024-03-25T03:03:02.235Z,146.39
2024-03-25T03:04:02.297Z,145.82
2024-03-25T03:05:02.325Z,146.75
2024-03-25T03:06:02.351Z,146.91
2024-03-25T03:07:02.450Z,146.39
2024-03-25T03:08:02.482Z,145.50
2024-03-25T03:09:02.510Z,145.82
2024-03-25T03:10:02.582Z,146.07
2024-03-25T03:11:02.620Z,146.16
2024-03-25T03:12:02.670Z,147.38
2024-03-25T03:13:02.788Z,146.63
2024-03-25T03:14:02.749Z,146.20
2024-03-25T03:15:02.811Z,146.05
2024-03-25T03:16:02.821Z,146.75
2024-03-25T03:17:02.991Z,146.71
2024-03-25T03:18:03.038Z,146.08
2024-03-25T03:19:03.064Z,146.48
2024-03-25T03:20:03.069Z,147.15
2024-03-25T03:21:03.120Z,147.17
2024-03-25T03:22:03.180Z,146.44
2024-03-25T03:23:03.212Z,146.56
2024-03-25T03:24:03.228Z,146.52
2024-03-25T03:25:03.331Z,146.49
2024-03-25T03:26:03.379Z,146.40
2024-03-25T03:27:03.342Z,146.93
2024-03-25T03:28:03.419Z,146.09
2024-03-25T03:29:03.468Z,146.16
2024-03-25T03:30:03.519Z,147.09
2024-03-25T03:31:03.631Z,146.75
2024-03-25T03:32:03.589Z,145.25
2024-03-25T03:33:03.649Z,147.23
2024-03-25T03:34:03.708Z,146.89
2024-03-25T03:35:03.730Z,146.52
2024-03-25T03:36:03.816Z,146.30
2024-03-25T03:37:03.932Z,146.51
2024-03-25T03:38:03.932Z,146.73
2024-03-25T03:39:03.956Z,146.50
2024-03-25T03:40:03.939Z,146.32
2024-03-25T03:41:04.020Z,146.36
2024-03-25T03:42:04.087Z,146.54
2024-03-25T03:43:04.131Z,146.47
2024-03-25T03:44:04.246Z,146.85
2024-03-25T03:45:04.215Z,147.05
2024-03-25T03:46:04.254Z,145.82
2024-03-25T03:47:04.304Z,146.60
2024-03-25T03:48:04.342Z,146.55
2024-03-25T03:49:04.496Z,146.49
2024-03-25T03:50:04.515Z,146.83
2024-03-25T03:51:04.602Z,146.67
2024-03-25T03:52:04.572Z,146.28
2024-03-25T03:53:04.604Z,146.30
2024-03-25T03:54:04.668Z,147.11
2024-03-25T03:55:04.720Z,145.77
2024-03-25T03:56:04.726Z,146.59
2024-03-25T03:57:04.794Z,146.23
2024-03-25T03:58:04.819Z,146.89
2024-03-25T03:59:04.907Z,147.14
2024-03-25T04:00:04.934Z,146.86
2024-03-25T04:01:04.990Z,147.55
2024-03-25T04:02:05.053Z,147.03
2024-03-25T04:03:05.097Z,145.60
2024-03-25T04:04:05.195Z,146.81
2024-03-25T04:05:05.323Z,146.61
2024-03-25T04:06:05.210Z,146.14
2024-03-25T04:07:05.264Z,146.42
2024-03-25T04:08:05.429Z,147.27
2024-03-25T04:09:05.373Z,146.95
2024-03-25T04:10:05.428Z,146.38
2024-03-25T04:11:05.498Z,145.79
2024-03-25T04:12:05.567Z,146.72
2024-03-25T04:13:05.614Z,147.04
2024-03-25T04:14:05.624Z,146.42
2024-03-25T04:15:07.008Z,147.23
2024-03-25T04:16:05.728Z,146.44
2024-03-25T04:17:05.798Z,147.40
2024-03-25T04:18:05.823Z,146.66
2024-03-25T04:19:05.872Z,147.17
2024-03-25T04:20:05.984Z,146.60
2024-03-25T04:21:05.987Z,146.63
2024-03-25T04:22:06.027Z,147.59
2024-03-25T04:23:06.076Z,147.76
2024-03-25T04:24:06.157Z,146.66
2024-03-25T04:25:06.272Z,147.21
2024-03-25T04:26:06.260Z,146.86
2024-03-25T04:27:13.510Z,50.00
2024-03-25T04:28:13.487Z,50.00
2024-03-25T04:29:13.479Z,50.00
2024-03-25T04:30:13.471Z,50.00
2024-03-25T04:31:20.690Z,50.00
2024-03-25T04:32:20.656Z,50.00
2024-03-25T04:33:20.699Z,50.00
2024-03-25T04:34:20.670Z,50.00
2024-03-25T04:35:20.668Z,50.00
2024-03-25T04:36:20.679Z,50.35
2024-03-25T04:37:20.679Z,50.00
2024-03-25T04:38:20.756Z,50.46
2024-03-25T04:39:20.697Z,50.07
2024-03-25T04:40:20.691Z,50.83
2024-03-25T04:41:20.673Z,50.71
2024-03-25T04:42:20.682Z,50.38
2024-03-25T04:43:20.692Z,51.19
2024-03-25T04:44:20.673Z,50.73
2024-03-25T04:45:20.685Z,50.76
2024-03-25T04:46:20.688Z,50.36
2024-03-25T04:47:20.692Z,51.67
2024-03-25T04:48:20.671Z,51.68
2024-03-25T04:49:20.668Z,50.33
2024-03-25T04:50:20.666Z,52.36
2024-03-25T04:51:20.736Z,51.90
2024-03-25T04:52:20.686Z,52.10
2024-03-25T04:53:20.688Z,51.23
2024-03-25T04:54:20.705Z,51.80
2024-03-25T04:55:20.702Z,52.13
2024-03-25T04:56:20.716Z,51.77
2024-03-25T04:57:20.732Z,51.82
2024-03-25T04:58:20.794Z,52.92
2024-03-25T04:59:20.826Z,51.14
2024-03-25T05:00:20.846Z,52.00
2024-03-25T05:01:20.918Z,51.85
2024-03-25T05:02:20.956Z,51.79
2024-03-25T05:03:21.030Z,51.52
2024-03-25T05:04:21.077Z,52.01
2024-03-25T05:05:21.122Z,51.66
2024-03-25T05:06:21.223Z,51.72
2024-03-25T05:07:21.235Z,51.33
2024-03-25T05:08:21.276Z,50.11
2024-03-25T05:09:21.331Z,50.13
2024-03-25T05:10:21.396Z,50.00
2024-03-25T05:11:21.440Z,50.29
2024-03-25T05:12:21.493Z,50.19
2024-03-25T05:13:21.544Z,50.00
2024-03-25T05:14:21.609Z,50.29
2024-03-25T05:15:21.627Z,50.16
2024-03-25T05:16:21.679Z,50.00
2024-03-25T05:17:21.729Z,50.18
2024-03-25T05:18:21.728Z,50.00
2024-03-25T05:19:21.755Z,50.38
2024-03-25T05:20:21.797Z,50.00
2024-03-25T05:21:21.821Z,50.24
2024-03-25T05:22:21.855Z,50.00
2024-03-25T05:23:21.935Z,50.00
2024-03-25T05:24:21.939Z,50.07
2024-03-25T05:25:22.102Z,50.20
2024-03-25T05:26:22.052Z,50.51
2024-03-25T05:27:22.080Z,50.28
2024-03-25T05:28:22.098Z,50.00
2024-03-25T05:29:22.103Z,50.00
2024-03-25T05:30:22.181Z,50.53
2024-03-25T05:31:22.176Z,50.00
2024-03-25T05:32:22.233Z,50.05
2024-03-25T05:33:22.268Z,50.00
2024-03-25T05:34:22.296Z,50.30
2024-03-25T05:35:22.342Z,50.01
2024-03-25T05:36:22.362Z,51.09
2024-03-25T05:37:22.418Z,50.40
2024-03-25T05:38:22.481Z,50.43
2024-03-25T05:39:22.491Z,50.29
2024-03-25T05:40:22.542Z,51.74
2024-03-25T05:41:22.558Z,52.87
2024-03-25T05:42:22.638Z,52.09
2024-03-25T05:43:22.663Z,53.15
2024-03-25T05:44:22.678Z,54.41
2024-03-25T05:45:22.729Z,54.77
2024-03-25T05:46:22.781Z,55.07
2024-03-25T05:47:22.808Z,55.71
2024-03-25T05:48:23.854Z,55.34
2024-03-25T05:49:22.902Z,56.14
2024-03-25T05:50:22.992Z,55.35
2024-03-25T05:51:22.975Z,55.97
2024-03-25T05:52:23.025Z,56.70
2024-03-25T05:53:23.056Z,57.08
2024-03-25T05:54:23.136Z,58.61
2024-03-25T05:55:23.136Z,57.81
2024-03-25T05:56:23.183Z,58.38
2024-03-25T05:57:23.236Z,58.54
2024-03-25T05:58:23.287Z,59.14
2024-03-25T05:59:23.338Z,60.49
2024-03-25T06:00:23.338Z,60.94
2024-03-25T06:01:23.396Z,61.73
2024-03-25T06:02:23.417Z,61.24
2024-03-25T06:03:23.497Z,62.11
2024-03-25T06:04:23.611Z,62.52
2024-03-25T06:05:23.551Z,62.79
2024-03-25T06:06:23.612Z,63.83
2024-03-25T06:07:23.664Z,64.97
2024-03-25T06:08:23.673Z,64.75
2024-03-25T06:09:23.767Z,65.54
2024-03-25T06:10:23.842Z,66.05
2024-03-25T06:11:23.833Z,66.00
2024-03-25T06:12:23.863Z,66.06
2024-03-25T06:13:23.895Z,66.24
2024-03-25T06:14:23.975Z,66.55
2024-03-25T06:15:23.964Z,67.09
2024-03-25T06:16:24.146Z,69.27
2024-03-25T06:17:24.151Z,69.17
2024-03-25T06:18:24.110Z,70.95
2024-03-25T06:19:24.145Z,70.35
2024-03-25T06:20:24.206Z,71.23
2024-03-25T06:21:24.236Z,70.30
2024-03-25T06:22:24.272Z,73.21
2024-03-25T06:23:24.325Z,73.30
2024-03-25T06:24:24.351Z,73.64
2024-03-25T06:25:24.416Z,74.98
2024-03-25T06:26:24.447Z,73.78
2024-03-25T06:27:24.460Z,74.87
2024-03-25T06:28:24.496Z,74.14
2024-03-25T06:29:24.534Z,75.00
2024-03-25T06:30:24.626Z,74.98
2024-03-25T06:31:24.611Z,76.17
2024-03-25T06:32:24.661Z,75.30
2024-03-25T06:33:24.641Z,76.30
2024-03-25T06:34:24.720Z,76.96
2024-03-25T06:35:24.876Z,77.67
2024-03-25T06:36:24.847Z,77.88
2024-03-25T06:37:24.849Z,78.71
2024-03-25T06:38:24.849Z,78.41
2024-03-25T06:39:24.896Z,79.10
2024-03-25T06:40:24.971Z,79.88
2024-03-25T06:41:24.982Z,79.49
2024-03-25T06:42:25.027Z,80.17
2024-03-25T06:43:25.021Z,80.78
2024-03-25T06:44:25.045Z,80.80
2024-03-25T06:45:25.099Z,81.54
2024-03-25T06:46:25.126Z,82.13
2024-03-25T06:47:25.147Z,81.44
2024-03-25T06:48:25.165Z,81.44
2024-03-25T06:49:25.260Z,83.52
2024-03-25T06:50:25.251Z,82.99
2024-03-25T06:51:25.295Z,82.98
2024-03-25T06:52:25.297Z,83.83
2024-03-25T06:53:25.351Z,83.64
2024-03-25T06:54:25.411Z,84.05
2024-03-25T06:55:25.412Z,83.95
2024-03-25T06:56:25.437Z,83.88
2024-03-25T06:57:25.530Z,85.37
2024-03-25T06:58:25.536Z,85.17
2024-03-25T06:59:25.547Z,84.83
2024-03-25T07:00:25.617Z,84.40
2024-03-25T07:01:25.642Z,85.68
2024-03-25T07:02:25.854Z,84.88
2024-03-25T07:03:25.746Z,85.95
2024-03-25T07:04:25.763Z,85.70
2024-03-25T07:05:25.780Z,86.54
2024-03-25T07:06:25.803Z,87.75
2024-03-25T07:07:25.883Z,86.26
2024-03-25T07:08:25.897Z,87.00
2024-03-25T07:09:25.930Z,86.73
2024-03-25T07:10:25.946Z,86.88
2024-03-25T07:11:25.981Z,87.98
2024-03-25T07:12:26.111Z,87.52
2024-03-25T07:13:26.059Z,87.68
2024-03-25T07:14:26.063Z,88.27
2024-03-25T07:15:26.146Z,87.60
2024-03-25T07:16:26.153Z,87.17
2024-03-25T07:17:26.212Z,87.84
2024-03-25T07:18:26.302Z,88.59
2024-03-25T07:19:26.261Z,90.08
2024-03-25T07:20:26.285Z,89.04
2024-03-25T07:21:28.201Z,90.30
2024-03-25T07:22:26.390Z,90.03
2024-03-25T07:23:26.393Z,90.00
2024-03-25T07:24:26.426Z,89.34
2024-03-25T07:25:26.478Z,87.33
2024-03-25T07:26:26.511Z,85.97
2024-03-25T07:27:26.532Z,84.70
2024-03-25T07:28:27.334Z,82.77
2024-03-25T07:29:26.655Z,80.17
2024-03-25T07:30:26.649Z,78.73
2024-03-25T07:31:26.694Z,77.45
2024-03-25T07:32:26.749Z,75.58
2024-03-25T07:33:26.770Z,73.01
2024-03-25T07:34:26.784Z,71.85
2024-03-25T07:35:26.820Z,68.94
2024-03-25T07:36:26.832Z,67.60
2024-03-25T07:37:26.954Z,67.47
2024-03-25T07:38:26.911Z,64.25
2024-03-25T07:39:26.949Z,63.36
2024-03-25T07:40:26.953Z,61.45
2024-03-25T07:41:26.994Z,61.07
2024-03-25T07:42:27.047Z,59.29
2024-03-25T07:43:27.084Z,58.16
2024-03-25T07:44:27.156Z,57.75
2024-03-25T07:45:27.164Z,55.40
2024-03-25T07:46:27.340Z,54.95
2024-03-25T07:47:27.314Z,54.25
2024-03-25T07:48:27.296Z,52.22
2024-03-25T07:49:27.302Z,52.11
2024-03-25T07:50:27.350Z,51.32
2024-03-25T07:51:27.427Z,49.99
2024-03-25T07:52:27.423Z,49.62
2024-03-25T07:53:27.454Z,47.17
2024-03-25T07:54:27.528Z,47.26
2024-03-25T07:55:27.538Z,46.29
2024-03-25T07:56:27.613Z,50.71
2024-03-25T07:57:27.596Z,50.88
2024-03-25T07:58:27.628Z,50.65
2024-03-25T07:59:27.664Z,51.15
2024-03-25T08:00:27.703Z,50.29
2024-03-25T08:01:27.793Z,50.16
2024-03-25T08:02:27.821Z,50.89
2024-03-25T08:03:27.837Z,50.21
2024-03-25T08:04:27.909Z,50.75
2024-03-25T08:05:27.934Z,50.00
2024-03-25T08:06:27.917Z,50.52
2024-03-25T08:07:27.957Z,50.66
2024-03-25T08:08:28.002Z,50.79
2024-03-25T08:09:28.009Z,51.01
2024-03-25T08:10:28.020Z,51.19
2024-03-25T08:11:28.082Z,51.05
2024-03-25T08:12:28.092Z,52.25
2024-03-25T08:13:28.115Z,50.86
2024-03-25T08:14:28.203Z,50.95
2024-03-25T08:15:28.229Z,51.61
2024-03-25T08:16:28.286Z,52.44
2024-03-25T08:17:28.413Z,51.66
2024-03-25T08:18:28.332Z,51.61
2024-03-25T08:19:28.362Z,51.23
2024-03-25T08:20:28.400Z,51.16
2024-03-25T08:21:28.423Z,49.56
2024-03-25T08:22:28.437Z,51.87
2024-03-25T08:23:28.511Z,52.35
2024-03-25T08:24:28.479Z,51.08
2024-03-25T08:25:28.503Z,51.52
2024-03-25T08:26:28.521Z,51.21
2024-03-25T08:27:28.534Z,51.30
2024-03-25T08:28:28.585Z,51.45
2024-03-25T08:29:28.628Z,51.50
2024-03-25T08:30:28.668Z,50.92
2024-03-25T08:31:28.730Z,50.00
2024-03-25T08:32:28.737Z,51.72
2024-03-25T08:33:28.715Z,51.41
2024-03-25T08:34:28.870Z,52.27
2024-03-25T08:35:28.881Z,50.83
2024-03-25T08:36:28.860Z,52.40
2024-03-25T08:37:28.897Z,52.10
2024-03-25T08:38:28.986Z,52.30
2024-03-25T08:39:28.930Z,50.76
2024-03-25T08:40:28.986Z,50.20
2024-03-25T08:41:29.018Z,51.76
2024-03-25T08:42:29.111Z,50.57
2024-03-25T08:43:29.123Z,51.85
2024-03-25T08:44:29.155Z,50.91
2024-03-25T08:45:29.166Z,51.27
2024-03-25T08:46:29.219Z,52.18
2024-03-25T08:47:29.232Z,50.63
2024-03-25T08:48:29.305Z,51.63
2024-03-25T08:49:29.304Z,51.69
2024-03-25T08:50:29.327Z,51.05
2024-03-25T08:51:29.362Z,50.86
2024-03-25T08:52:29.492Z,51.90
2024-03-25T08:53:29.439Z,51.40
2024-03-25T08:54:29.449Z,51.60
2024-03-25T08:55:29.525Z,50.18
2024-03-25T08:56:29.537Z,50.69
2024-03-25T08:57:29.718Z,50.73
2024-03-25T08:58:29.610Z,51.07
2024-03-25T08:59:29.621Z,51.46
2024-03-25T09:00:29.685Z,52.21
2024-03-25T09:01:29.700Z,51.25
2024-03-25T09:02:29.769Z,52.26
2024-03-25T09:03:30.421Z,52.06
2024-03-25T09:04:29.817Z,50.41
2024-03-25T09:05:29.876Z,51.87
2024-03-25T09:06:29.884Z,52.28
2024-03-25T09:07:29.911Z,52.45
2024-03-25T09:08:29.958Z,51.47
2024-03-25T09:09:29.955Z,51.88
2024-03-25T09:10:30.024Z,52.66
2024-03-25T09:11:30.079Z,51.28
2024-03-25T09:12:30.171Z,52.20
2024-03-25T09:13:30.193Z,51.93
2024-03-25T09:14:30.135Z,51.79
2024-03-25T09:15:30.261Z,53.64
2024-03-25T09:16:30.177Z,52.00
2024-03-25T09:17:30.228Z,50.92
2024-03-25T09:18:30.284Z,52.14
2024-03-25T09:19:30.312Z,51.75
2024-03-25T09:20:30.323Z,52.90
2024-03-25T09:21:30.894Z,50.85
2024-03-25T09:22:30.365Z,51.42
2024-03-25T09:23:30.396Z,51.21
2024-03-25T09:24:30.426Z,50.24
2024-03-25T09:25:30.539Z,51.48
2024-03-25T09:26:30.517Z,51.47
2024-03-25T09:27:31.006Z,52.21
2024-03-25T09:28:30.532Z,52.14
2024-03-25T09:29:30.573Z,51.86
2024-03-25T09:30:30.618Z,52.37
2024-03-25T09:31:30.772Z,51.62
2024-03-25T09:32:30.769Z,51.14
2024-03-25T09:33:30.662Z,51.90
2024-03-25T09:34:30.706Z,52.34
2024-03-25T09:35:30.763Z,50.81
2024-03-25T09:36:30.739Z,50.85
2024-03-25T09:37:30.808Z,50.91
2024-03-25T09:38:30.811Z,53.12
2024-03-25T09:39:30.856Z,52.92
2024-03-25T09:40:30.862Z,51.39
2024-03-25T09:41:30.901Z,50.73
2024-03-25T09:42:31.051Z,52.05
2024-03-25T09:43:31.010Z,52.20
2024-03-25T09:44:31.001Z,52.82
2024-03-25T09:45:30.997Z,51.26
2024-03-25T09:46:31.185Z,52.89
2024-03-25T09:47:31.084Z,51.44
2024-03-25T09:48:31.162Z,51.13
2024-03-25T09:49:31.137Z,51.23
2024-03-25T09:50:31.151Z,50.73
2024-03-25T09:51:31.203Z,51.00
2024-03-25T09:52:31.249Z,50.00
2024-03-25T09:53:31.249Z,51.81
2024-03-25T09:54:31.233Z,52.17
2024-03-25T09:55:31.351Z,51.53
2024-03-25T09:56:31.327Z,51.70
2024-03-25T09:57:31.326Z,51.76
2024-03-25T09:58:31.436Z,51.81
2024-03-25T09:59:31.366Z,51.04
2024-03-25T10:00:31.445Z,51.55
2024-03-25T10:01:31.505Z,51.19
2024-03-25T10:02:31.491Z,50.63
2024-03-25T10:03:31.489Z,51.37
2024-03-25T10:04:31.503Z,50.00
2024-03-25T10:05:31.597Z,51.18
2024-03-25T10:06:31.577Z,50.92
2024-03-25T10:07:31.588Z,51.54
2024-03-25T10:08:31.636Z,50.59
2024-03-25T10:09:31.724Z,52.13
2024-03-25T10:10:31.683Z,51.08
2024-03-25T10:11:31.751Z,54.93
2024-03-25T10:12:31.757Z,53.30
2024-03-25T10:13:31.757Z,52.96
2024-03-25T10:14:31.886Z,52.54
2024-03-25T10:15:31.950Z,52.11
2024-03-25T10:16:31.896Z,52.18
2024-03-25T10:17:31.941Z,53.44
2024-03-25T10:18:31.960Z,54.33
2024-03-25T10:19:31.952Z,53.93
2024-03-25T10:20:32.084Z,51.93
2024-03-25T10:21:31.993Z,53.04
2024-03-25T10:22:32.107Z,52.73
2024-03-25T10:23:32.055Z,52.08
2024-03-25T10:24:32.097Z,51.91
2024-03-25T10:25:32.105Z,52.45
2024-03-25T10:26:32.950Z,52.57
2024-03-25T10:27:32.137Z,52.87
2024-03-25T10:28:32.148Z,52.70
2024-03-25T10:29:32.216Z,52.44
2024-03-25T10:30:32.283Z,53.58
2024-03-25T10:31:32.443Z,52.73
2024-03-25T10:32:32.335Z,52.47
2024-03-25T10:33:32.330Z,53.00
2024-03-25T10:34:32.328Z,53.86
2024-03-25T10:35:32.354Z,51.57
2024-03-25T10:36:32.408Z,52.87
2024-03-25T10:37:32.391Z,52.97
2024-03-25T10:38:32.457Z,53.01
2024-03-25T10:39:32.498Z,53.75
2024-03-25T10:40:32.486Z,50.81
2024-03-25T10:41:32.489Z,50.75
2024-03-25T10:42:32.549Z,54.30
2024-03-25T10:43:32.567Z,53.95
2024-03-25T10:44:32.636Z,53.73
2024-03-25T10:45:32.621Z,50.31
2024-03-25T10:46:32.717Z,53.34
2024-03-25T10:47:32.690Z,52.31
2024-03-25T10:48:32.747Z,53.94
2024-03-25T10:49:32.895Z,53.75
2024-03-25T10:50:32.794Z,52.84
2024-03-25T10:51:32.828Z,51.88
2024-03-25T10:52:32.899Z,52.63
2024-03-25T10:53:32.876Z,52.58
2024-03-25T10:54:32.944Z,53.03
2024-03-25T10:55:32.937Z,52.57
2024-03-25T10:56:32.972Z,54.22
2024-03-25T10:57:32.996Z,53.26
2024-03-25T10:58:33.020Z,53.67
2024-03-25T10:59:33.014Z,51.60
2024-03-25T11:00:33.074Z,54.38
2024-03-25T11:01:33.121Z,51.59
2024-03-25T11:02:33.194Z,54.15
2024-03-25T11:03:33.167Z,52.13
2024-03-25T11:04:33.230Z,53.90
2024-03-25T11:05:33.198Z,54.46
2024-03-25T11:06:33.268Z,54.11
2024-03-25T11:07:33.275Z,54.06
2024-03-25T11:08:33.350Z,54.17
2024-03-25T11:09:33.349Z,54.95
2024-03-25T11:10:33.384Z,53.75
2024-03-25T11:11:33.411Z,52.50
2024-03-25T11:12:33.501Z,54.18
2024-03-25T11:13:33.417Z,53.01
2024-03-25T11:14:33.460Z,54.20
2024-03-25T11:15:33.466Z,54.02
2024-03-25T11:16:33.776Z,54.22
2024-03-25T11:17:33.727Z,52.55
2024-03-25T11:18:35.111Z,53.46
2024-03-25T11:19:33.718Z,54.98
2024-03-25T11:20:33.774Z,52.61
2024-03-25T11:21:33.689Z,53.07
2024-03-25T11:22:33.739Z,51.22
2024-03-25T11:23:33.750Z,52.85
2024-03-25T11:24:34.820Z,51.26
2024-03-25T11:25:33.799Z,52.04
2024-03-25T11:26:33.841Z,52.51
2024-03-25T11:27:33.830Z,50.00
2024-03-25T11:28:34.097Z,52.68
2024-03-25T11:29:33.945Z,51.74
2024-03-25T11:30:33.983Z,51.36
2024-03-25T11:31:33.970Z,51.72
2024-03-25T11:32:33.999Z,54.11
2024-03-25T11:33:34.021Z,52.69
2024-03-25T11:34:34.082Z,53.11
2024-03-25T11:35:35.509Z,50.26
2024-03-25T11:36:34.097Z,54.97
2024-03-25T11:37:34.140Z,53.04
2024-03-25T11:38:34.152Z,54.74
2024-03-25T11:39:34.454Z,53.41
2024-03-25T11:40:34.214Z,54.33
2024-03-25T11:41:34.223Z,53.48
2024-03-25T11:42:34.239Z,53.54
2024-03-25T11:43:34.923Z,53.23
2024-03-25T11:44:34.288Z,51.56
2024-03-25T11:45:34.312Z,52.57
2024-03-25T11:46:34.360Z,51.85
2024-03-25T11:47:34.427Z,52.17
2024-03-25T11:48:34.409Z,54.26
2024-03-25T11:49:34.458Z,51.70
2024-03-25T11:50:34.514Z,53.03
2024-03-25T11:51:34.507Z,53.21
2024-03-25T11:52:34.575Z,54.32
2024-03-25T11:53:34.640Z,54.50
2024-03-25T11:54:34.625Z,52.49
2024-03-25T11:55:34.597Z,53.12
2024-03-25T11:56:34.642Z,51.95
2024-03-25T11:57:34.758Z,50.72
2024-03-25T11:58:34.707Z,52.67
2024-03-25T11:59:34.718Z,53.62
2024-03-25T12:00:34.736Z,51.69
2024-03-25T12:01:34.778Z,54.40
2024-03-25T12:02:36.447Z,54.25
2024-03-25T12:03:41.460Z,54.35
2024-03-25T12:04:35.821Z,54.40
2024-03-25T12:05:34.839Z,53.95
2024-03-25T12:06:34.866Z,51.96
2024-03-25T12:07:34.881Z,54.96
2024-03-25T12:08:34.858Z,53.89
2024-03-25T12:09:34.835Z,52.35
2024-03-25T12:10:34.856Z,53.73
2024-03-25T12:11:34.844Z,52.24
2024-03-25T12:12:34.846Z,52.29
2024-03-25T12:13:34.863Z,52.68
2024-03-25T12:14:34.873Z,54.22
2024-03-25T12:15:34.873Z,54.08
2024-03-25T12:16:34.875Z,52.62
2024-03-25T12:17:34.845Z,53.02
2024-03-25T12:18:34.851Z,54.00
2024-03-25T12:19:34.863Z,53.51
2024-03-25T12:20:34.861Z,52.47
2024-03-25T12:21:34.924Z,53.99
2024-03-25T12:22:34.885Z,52.67
2024-03-25T12:23:34.948Z,54.12
2024-03-25T12:24:35.038Z,52.58
2024-03-25T12:25:34.998Z,53.98
2024-03-25T12:26:35.052Z,51.61
2024-03-25T12:27:35.051Z,51.19
2024-03-25T12:28:35.083Z,53.38
2024-03-25T12:29:35.115Z,52.58
2024-03-25T12:30:35.126Z,53.31
2024-03-25T12:31:35.158Z,53.87
2024-03-25T12:32:35.218Z,53.65
2024-03-25T12:33:35.201Z,52.86
2024-03-25T12:34:35.269Z,54.82
2024-03-25T12:35:35.320Z,54.14
2024-03-25T12:36:35.348Z,55.00
2024-03-25T12:37:35.340Z,53.67
2024-03-25T12:38:35.344Z,53.07
2024-03-25T12:39:35.408Z,52.93
2024-03-25T12:40:35.412Z,55.23
2024-03-25T12:41:35.465Z,55.36
2024-03-25T12:42:35.467Z,54.47
2024-03-25T12:43:35.614Z,53.13
2024-03-25T12:44:35.551Z,54.20
2024-03-25T12:45:35.609Z,54.55